createdAt,value
2023-03-20T00:01:37.238Z,56.65
2023-03-20T00:06:40.051Z,57.67
2023-03-20T00:11:49.031Z,59.97
2023-03-20T00:16:52.716Z,55.45
2023-03-20T00:21:57.584Z,56.80
2023-03-20T00:27:02.688Z,58.45
2023-03-20T00:32:09.625Z,50.75
2023-03-20T00:37:12.653Z,55.55
2023-03-20T00:42:22.151Z,65.85
2023-03-20T00:47:27.040Z,59.22
2023-03-20T00:52:30.447Z,56.28
2023-03-20T00:57:40.328Z,52.95
2023-03-20T01:02:43.172Z,54.97
2023-03-20T01:07:46.623Z,55.10
2023-03-20T01:12:50.833Z,55.97
2023-03-20T01:17:53.955Z,54.13
2023-03-20T01:22:57.054Z,54.03
2023-03-20T01:28:01.607Z,56.65
2023-03-20T01:33:14.428Z,61.10
2023-03-20T01:38:21.629Z,56.80
2023-03-20T01:43:28.841Z,56.25
2023-03-20T01:48:57.084Z,51.65
2023-03-20T01:54:06.012Z,47.70
2023-03-20T01:59:17.631Z,54.08
2023-03-20T02:04:27.110Z,54.08
2023-03-20T02:09:36.384Z,55.35
2023-03-20T02:14:48.027Z,56.40
2023-03-20T02:20:10.042Z,62.83
2023-03-20T02:25:48.094Z,59.15
2023-03-20T02:31:09.162Z,63.17
2023-03-20T02:36:51.286Z,63.97
2023-03-20T02:42:03.446Z,66.90
2023-03-20T02:47:12.651Z,68.90
2023-03-20T02:52:21.168Z,68.18
2023-03-20T02:57:39.867Z,67.25
2023-03-20T03:02:51.811Z,69.53
2023-03-20T03:07:59.766Z,65.78
2023-03-20T03:13:07.760Z,72.95
2023-03-20T03:18:15.341Z,71.22
2023-03-20T03:23:28.550Z,79.32
2023-03-20T03:28:37.541Z,76.07
2023-03-20T03:33:42.134Z,77.20
2023-03-20T03:38:52.228Z,86.28
2023-03-20T03:44:06.766Z,71.68
2023-03-20T03:49:14.766Z,84.32
2023-03-20T03:54:23.560Z,84.25
2023-03-20T03:59:52.075Z,78.00
2023-03-20T04:04:56.175Z,73.38
2023-03-20T04:09:58.972Z,72.82
2023-03-20T04:15:03.670Z,74.35
2023-03-20T04:20:10.698Z,64.47
2023-03-20T04:25:18.757Z,66.53
2023-03-20T04:30:24.057Z,59.45
2023-03-20T04:35:51.706Z,57.63
2023-03-20T04:40:54.475Z,58.83
2023-03-20T04:45:58.788Z,64.95
2023-03-20T04:51:01.855Z,58.92
2023-03-20T04:56:16.899Z,53.53
2023-03-20T05:01:21.314Z,56.65
2023-03-20T05:06:24.166Z,54.25
2023-03-20T05:11:27.383Z,44.92
2023-03-20T05:16:47.305Z,51.83
2023-03-20T05:21:58.494Z,41.88
2023-03-20T05:27:08.043Z,40.95
2023-03-20T05:32:27.039Z,41.88
2023-03-20T05:37:55.818Z,44.38
2023-03-20T05:43:06.847Z,37.22
2023-03-20T05:48:26.512Z,36.58
2023-03-20T05:53:54.763Z,36.72
2023-03-20T05:59:15.497Z,41.05
2023-03-20T06:04:48.581Z,46.33
2023-03-20T06:09:57.786Z,43.15
2023-03-20T06:15:01.946Z,46.05
2023-03-20T06:20:11.314Z,39.67
2023-03-20T06:25:14.635Z,39.78
2023-03-20T06:30:20.248Z,42.72
2023-03-20T06:35:24.835Z,41.33
2023-03-20T06:40:28.338Z,44.95
2023-03-20T06:45:32.090Z,39.15
2023-03-20T06:50:38.776Z,40.45
2023-03-20T06:55:42.303Z,43.47
2023-03-20T07:00:46.700Z,31.77
2023-03-20T07:05:51.318Z,34.58
2023-03-20T07:10:55.587Z,40.63
2023-03-20T07:16:04.422Z,39.00
2023-03-20T07:21:20.471Z,43.17
2023-03-20T07:26:23.264Z,41.83
2023-03-20T07:31:28.891Z,40.58
2023-03-20T07:36:49.651Z,43.35
2023-03-20T07:41:55.990Z,35.50
2023-03-20T07:47:12.758Z,36.33
2023-03-20T07:52:17.194Z,39.95
2023-03-20T07:57:20.363Z,31.42
2023-03-20T08:02:23.303Z,31.55
2023-03-20T08:07:29.550Z,33.33
2023-03-20T08:12:32.398Z,26.17
2023-03-20T08:17:35.189Z,22.48
2023-03-20T08:22:39.508Z,24.33
2023-03-20T08:27:42.293Z,24.88
2023-03-20T08:32:45.431Z,21.70
2023-03-20T08:37:49.543Z,26.08
2023-03-20T08:42:52.340Z,28.20
2023-03-20T08:47:55.756Z,24.25
2023-03-20T08:52:59.912Z,17.80
2023-03-20T08:58:02.864Z,17.63
2023-03-20T09:03:05.855Z,18.85
2023-03-20T09:08:10.058Z,22.30
2023-03-20T09:13:26.333Z,17.95
2023-03-20T09:18:30.192Z,13.85
2023-03-20T09:23:34.388Z,13.77
2023-03-20T09:28:37.180Z,12.27
2023-03-20T09:33:40.029Z,15.13
2023-03-20T09:38:44.158Z,13.85
2023-03-20T09:43:58.312Z,14.63
2023-03-20T09:49:13.499Z,20.17
2023-03-20T09:54:25.612Z,17.75
2023-03-20T09:59:29.241Z,18.20
2023-03-20T10:04:32.111Z,26.80
2023-03-20T10:09:36.293Z,19.98
2023-03-20T10:14:48.476Z,18.75
2023-03-20T10:19:54.591Z,20.17
2023-03-20T10:25:08.691Z,20.15
2023-03-20T10:30:32.487Z,15.95
2023-03-20T10:35:40.778Z,20.77
2023-03-20T10:40:45.954Z,16.40
2023-03-20T10:45:51.801Z,16.25
2023-03-20T10:50:57.112Z,22.85
2023-03-20T10:56:06.357Z,19.27
2023-03-20T11:01:09.307Z,18.42
2023-03-20T11:06:19.541Z,17.42
2023-03-20T11:11:29.295Z,22.92
2023-03-20T11:16:36.662Z,15.50
2023-03-20T11:21:47.371Z,19.40
2023-03-20T11:26:52.847Z,11.73
2023-03-20T11:32:04.151Z,13.98
2023-03-20T11:37:22.076Z,13.10
2023-03-20T11:42:28.601Z,15.38
2023-03-20T11:47:34.824Z,17.65
2023-03-20T11:52:40.894Z,14.23
2023-03-20T11:57:47.360Z,16.08
2023-03-20T12:02:51.024Z,15.77
2023-03-20T12:07:58.182Z,14.93
2023-03-20T12:13:07.756Z,18.23
2023-03-20T12:18:15.638Z,14.48
2023-03-20T12:23:25.137Z,12.35
2023-03-20T12:28:37.228Z,11.38
2023-03-20T12:33:46.914Z,10.60
2023-03-20T12:38:49.661Z,12.43
2023-03-20T12:44:21.763Z,5.55
2023-03-20T12:49:35.449Z,9.13
2023-03-20T12:54:52.186Z,6.90
2023-03-20T13:00:13.663Z,6.13
2023-03-20T13:05:32.088Z,10.20
2023-03-20T13:10:39.052Z,11.30
2023-03-20T13:15:59.203Z,8.98
2023-03-20T13:21:07.401Z,9.88
2023-03-20T13:26:22.765Z,8.95
2023-03-20T13:31:37.875Z,7.95
2023-03-20T13:36:55.447Z,9.75
2023-03-20T13:42:00.518Z,11.40
2023-03-20T13:47:11.435Z,8.55
2023-03-20T13:52:18.093Z,7.45
2023-03-20T13:57:29.925Z,6.05
2023-03-20T14:02:51.767Z,7.70
2023-03-20T14:07:58.162Z,14.53
2023-03-20T14:13:02.480Z,10.38
2023-03-20T14:18:09.390Z,8.93
2023-03-20T14:23:20.553Z,9.25
2023-03-20T14:28:28.366Z,6.57
2023-03-20T14:33:32.705Z,9.98
2023-03-20T14:38:41.065Z,8.85
2023-03-20T14:43:58.926Z,4.72
2023-03-20T14:49:19.447Z,6.00
2023-03-20T14:54:27.863Z,16.65
2023-03-20T14:59:33.323Z,5.38
2023-03-20T15:04:40.531Z,8.48
2023-03-20T15:09:46.288Z,8.98
2023-03-20T15:14:56.347Z,12.23
2023-03-20T15:20:08.594Z,11.15
2023-03-20T15:25:18.514Z,13.65
2023-03-20T15:30:23.113Z,11.52
2023-03-20T15:35:28.151Z,10.35
2023-03-20T15:40:49.360Z,8.38
2023-03-20T15:46:14.195Z,7.28
2023-03-20T15:51:23.837Z,10.43
2023-03-20T15:56:28.150Z,10.13
2023-03-20T16:01:33.216Z,12.00
2023-03-20T16:06:47.216Z,8.10
2023-03-20T16:11:58.061Z,5.95
2023-03-20T16:17:03.186Z,8.25
2023-03-20T16:22:18.344Z,12.82
2023-03-20T16:27:27.577Z,13.32
2023-03-20T16:32:38.391Z,18.73
2023-03-20T16:37:49.564Z,6.93
2023-03-20T16:42:54.902Z,6.18
2023-03-20T16:48:22.554Z,8.18
2023-03-20T16:53:30.979Z,8.18
2023-03-20T16:58:39.875Z,7.28
2023-03-20T17:03:49.163Z,7.70
2023-03-20T17:08:55.469Z,11.55
2023-03-20T17:13:58.256Z,13.00
2023-03-20T17:19:02.665Z,8.02
2023-03-20T17:24:07.361Z,9.05
2023-03-20T17:29:11.819Z,11.68
2023-03-20T17:34:15.562Z,8.02
2023-03-20T17:39:21.497Z,13.85
2023-03-20T17:44:24.790Z,10.85
2023-03-20T17:49:28.334Z,9.57
2023-03-20T17:54:32.593Z,13.73
2023-03-20T17:59:36.355Z,11.98
2023-03-20T18:04:39.158Z,14.70
2023-03-20T18:09:44.542Z,17.00
2023-03-20T18:14:47.788Z,10.20
2023-03-20T18:19:50.546Z,15.13
2023-03-20T18:24:54.696Z,14.02
2023-03-20T18:29:57.466Z,14.77
2023-03-20T18:35:00.265Z,11.15
2023-03-20T18:40:07.643Z,12.63
2023-03-20T18:45:11.743Z,18.70
2023-03-20T18:50:24.443Z,19.95
2023-03-20T19:00:37.896Z,19.42
2023-03-20T19:05:41.091Z,20.50
2023-03-20T19:10:45.959Z,20.88
2023-03-20T19:15:48.884Z,16.35
2023-03-20T19:20:53.033Z,36.85
2023-03-20T19:25:57.258Z,22.02
2023-03-20T19:31:00.889Z,25.55
2023-03-20T19:36:04.950Z,31.42
2023-03-20T19:41:09.515Z,24.80
2023-03-20T19:46:28.491Z,37.17
2023-03-20T19:51:38.972Z,36.53
2023-03-20T19:56:43.181Z,31.60
2023-03-20T20:01:47.019Z,31.48
2023-03-20T20:06:50.048Z,23.85
2023-03-20T20:11:54.303Z,43.10
2023-03-20T20:16:57.180Z,59.60
2023-03-20T20:22:20.308Z,35.78
2023-03-20T20:32:28.548Z,34.72
2023-03-20T20:43:01.400Z,38.25
2023-03-20T20:48:07.292Z,44.80
2023-03-20T20:53:10.223Z,32.08
2023-03-20T20:58:14.341Z,40.80
2023-03-20T21:03:17.402Z,39.40
2023-03-20T21:08:20.223Z,59.40
2023-03-20T21:13:24.520Z,78.43
2023-03-20T21:18:27.473Z,40.05
2023-03-20T21:23:30.419Z,45.55
2023-03-20T21:28:34.569Z,34.53
2023-03-20T21:33:38.744Z,35.53
2023-03-20T22:00:44.042Z,48.75
2023-03-20T22:05:58.644Z,41.83
2023-03-20T22:17:08.781Z,45.70
2023-03-20T22:38:41.321Z,26.15
2023-03-20T22:48:33.278Z,30.83
2023-03-20T22:53:36.499Z,24.17
2023-03-20T22:58:39.328Z,22.13
2023-03-20T23:03:43.478Z,20.42
2023-03-20T23:08:52.286Z,19.70
2023-03-20T23:13:57.218Z,27.33
2023-03-20T23:19:01.376Z,22.83
2023-03-20T23:24:04.462Z,23.08
2023-03-20T23:29:07.688Z,19.95
2023-03-20T23:34:11.911Z,23.70
2023-03-20T23:39:15.286Z,18.75
2023-03-20T23:44:18.113Z,22.02
2023-03-20T23:49:22.511Z,21.73
2023-03-20T23:54:25.301Z,20.83
2023-03-20T23:59:29.808Z,19.35
